Weather reports worldwide

Advertisment
Paganella, Italy (16022): temperature & dewpoint: 17.09.2020 08:00:00 - 23.09.2020 08:00:00 (CEST)Paganella, Italy (16022): wind speed: 17.09.2020 08:00:00 - 23.09.2020 08:00:00 (CEST)Paganella, Italy (16022): wind direction: 17.09.2020 08:00:00 - 23.09.2020 08:00:00 (CEST)Paganella, Italy (16022): visibility: 17.09.2020 08:00:00 - 23.09.2020 08:00:00 (CEST)Paganella, Italy (16022): sunshine duration: 17.09.2020 08:00:00 - 23.09.2020 08:00:00 (CEST)
Date & Time tt [°C] td [°C] ff [km/h] ff [kn] dd vv [km] sd [min]
23.09.2020 08:00:00 5,8 4,8 0 0 N 8 0
23.09.2020 07:00:00 5,8 4,3 4 2 S 1,5 0
23.09.2020 06:00:00 5,8 4,3 9 5 SSW 12 -
23.09.2020 05:00:00 6,0 4,2 5 3 SSW 0,9 -
23.09.2020 04:00:00 6,0 3,7 0 0 N 0,9 -
23.09.2020 03:00:00 5,8 3,5 4 2 SSW 0,9 -
23.09.2020 02:00:00 6,2 4,2 5 3 S 0,9 -
23.09.2020 01:00:00 6,0 4,2 4 2 S 0,9 -
23.09.2020 00:00:00 5,2 4,3 8 4 S 0,6 -
22.09.2020 23:00:00 5,8 4,3 11 6 S 0,6 -
22.09.2020 22:00:00 6,2 5,0 11 6 S 0,6 -
22.09.2020 21:00:00 8,8 7,4 13 7 SSW 0,2 -
22.09.2020 20:00:00 7,0 6,1 15 8 SSW - 0
22.09.2020 19:00:00 7,4 5,5 15 8 SSW 0,3 0
22.09.2020 18:00:00 8,6 6,2 8 4 S - 0
22.09.2020 17:00:00 9,0 6,1 9 5 SSW 0,9 0
22.09.2020 16:00:00 9,2 7,2 13 7 SSW 0,2 0
22.09.2020 15:00:00 9,0 6,3 15 8 S 10 0
22.09.2020 14:00:00 9,5 6,2 13 7 S 0,3 0
22.09.2020 13:00:00 9,8 6,3 9 5 E 1,1 0
22.09.2020 12:00:00 8,2 6,8 9 5 S 0,9 0
22.09.2020 11:00:00 8,2 6,7 5 3 E 0,1 0
22.09.2020 10:00:00 7,5 6,3 8 4 SSE 0,9 0
22.09.2020 09:00:00 6,7 5,8 13 7 SSE 15 0
22.09.2020 08:00:00 6,6 6,6 4 2 S 0,4 0
22.09.2020 07:00:00 6,3 6,3 0 0 N 0,1 0
22.09.2020 06:00:00 6,5 6,5 4 2 S - -
22.09.2020 05:00:00 6,4 6,0 5 3 SSW - -
22.09.2020 04:00:00 6,3 5,7 9 5 SSW - -
22.09.2020 03:00:00 6,5 6,2 9 5 SSW 0,6 -
22.09.2020 02:00:00 6,7 5,3 9 5 SSW 0,6 -
22.09.2020 01:00:00 7,0 6,9 8 4 S 0,9 -
22.09.2020 00:00:00 7,0 7,0 8 4 S - -
21.09.2020 23:00:00 7,1 7,1 9 5 SSW - -
21.09.2020 22:00:00 7,2 6,9 11 6 SSW 0,9 -
21.09.2020 21:00:00 7,4 7,0 13 7 SSW - -
21.09.2020 20:00:00 8,2 8,2 15 8 SSW - 0
21.09.2020 19:00:00 8,8 6,8 16 9 SSW - 18
21.09.2020 18:00:00 10,0 6,4 13 7 SSW 20 0
21.09.2020 17:00:00 10,4 6,9 11 6 S 20 0
21.09.2020 16:00:00 10,8 7,3 11 6 S - 0
21.09.2020 15:00:00 10,6 6,9 13 7 S 15 0
21.09.2020 14:00:00 11,0 7,5 11 6 SSW 0,9 0
21.09.2020 13:00:00 10,4 8,2 9 5 S 0,9 0
21.09.2020 12:00:00 9,4 7,0 5 3 SSW 0,9 0
21.09.2020 11:00:00 9,6 8,8 0 0 N 0,6 0
21.09.2020 10:00:00 8,8 8,4 0 0 N 0,6 6
21.09.2020 09:00:00 7,7 7,0 0 0 N 1,5 12
21.09.2020 08:00:00 7,1 6,2 0 0 N 30 0
21.09.2020 07:00:00 7,2 6,9 0 0 N 20 0
21.09.2020 06:00:00 7,5 7,5 4 2 N 0,9 -
21.09.2020 05:00:00 7,3 7,0 0 0 N 0,9 -
21.09.2020 04:00:00 7,3 7,2 0 0 N - -
21.09.2020 03:00:00 7,8 7,5 5 3 SSW - -
21.09.2020 02:00:00 7,0 6,4 0 0 N - -
21.09.2020 01:00:00 7,4 7,4 11 6 SW 0,1 -
21.09.2020 00:00:00 7,8 6,6 16 9 SSW 20 -
20.09.2020 23:00:00 7,8 7,5 15 8 SSW 25 -
20.09.2020 22:00:00 8,2 7,6 16 9 SSW 15 -
20.09.2020 21:00:00 8,4 6,7 15 8 SW 20 -
20.09.2020 20:00:00 9,0 5,4 18 10 SSW 25 0
20.09.2020 19:00:00 9,2 7,0 21 11 SW 25 0
20.09.2020 18:00:00 10,8 7,9 11 6 SW 30 36
20.09.2020 17:00:00 12,0 9,0 0 0 N 15 36
20.09.2020 16:00:00 11,7 9,1 0 0 N 3,0 48
20.09.2020 15:00:00 11,2 8,8 8 4 SSW 3,0 0
20.09.2020 14:00:00 10,8 8,4 11 6 SW 0,6 0
20.09.2020 13:00:00 10,7 8,3 9 5 SW 0,9 0
20.09.2020 12:00:00 10,0 8,4 8 4 SSW 0,1 0
20.09.2020 11:00:00 10,2 8,5 8 4 SSW 0,6 36
20.09.2020 10:00:00 10,0 7,9 0 0 N 2,0 60
20.09.2020 09:00:00 9,2 7,5 0 0 N 30 36
20.09.2020 08:00:00 8,2 5,8 0 0 N 30 0
20.09.2020 07:00:00 8,0 5,8 0 0 N 20 0
20.09.2020 06:00:00 8,0 7,1 4 2 N 20 -
20.09.2020 05:00:00 8,5 7,4 0 0 N 0,9 -
20.09.2020 04:00:00 8,5 7,3 0 0 N 0,9 -
20.09.2020 03:00:00 8,5 8,5 4 2 N 0,3 -
20.09.2020 02:00:00 8,9 8,9 0 0 N - -
20.09.2020 01:00:00 8,7 8,7 0 0 N - -
20.09.2020 00:00:00 8,8 8,8 4 2 N 0,3 -
19.09.2020 23:00:00 9,6 9,3 0 0 N - -
19.09.2020 22:00:00 10,0 8,3 0 0 N 0,9 -
19.09.2020 21:00:00 10,2 7,8 5 3 SSW 0,1 0
19.09.2020 20:00:00 11,0 8,0 8 4 SW - 0
19.09.2020 19:00:00 12,0 7,7 0 0 N 15 6
19.09.2020 18:00:00 12,0 9,4 0 0 N 15 0
19.09.2020 17:00:00 12,8 10,4 0 0 N 15 6
19.09.2020 16:00:00 12,6 9,6 0 0 N 0,9 0
19.09.2020 15:00:00 12,2 9,8 0 0 N 0,9 0
19.09.2020 14:00:00 12,8 10,4 0 0 N 0,7 0
19.09.2020 13:00:00 12,0 9,5 5 3 S 0,9 0
19.09.2020 12:00:00 10,8 8,9 5 3 SW 0,7 0
19.09.2020 11:00:00 10,2 9,3 0 0 N 0,2 6
19.09.2020 10:00:00 9,2 7,2 4 2 N 0,8 18
19.09.2020 09:00:00 9,7 8,0 4 2 N 0,6 12
19.09.2020 08:00:00 9,0 2,8 0 0 N 40 12
19.09.2020 07:00:00 8,7 2,3 8 4 SSW 40 0
19.09.2020 06:00:00 8,2 2,7 9 5 SW 30 -
19.09.2020 05:00:00 8,0 3,3 13 7 SW 30 -
19.09.2020 04:00:00 8,1 4,3 11 6 SW 30 -
19.09.2020 03:00:00 8,6 3,2 8 4 SW 30 -
19.09.2020 02:00:00 8,2 4,2 9 5 SW 30 -
19.09.2020 01:00:00 8,6 6,7 13 7 WSW 30 -
19.09.2020 00:00:00 8,8 8,4 18 10 WSW 30 -
18.09.2020 23:00:00 9,2 8,4 16 9 WSW 30 -
18.09.2020 22:00:00 9,6 7,5 8 4 WSW 30 -
18.09.2020 21:00:00 10,6 8,4 8 4 W 30 0
18.09.2020 20:00:00 10,4 6,7 5 3 WNW 30 0
18.09.2020 19:00:00 11,7 6,8 4 2 N 40 48
18.09.2020 18:00:00 12,7 5,8 4 2 N 40 60
18.09.2020 17:00:00 12,4 6,9 4 2 N 50 60
18.09.2020 16:00:00 12,0 6,3 5 3 NNE 50 60
18.09.2020 15:00:00 12,0 7,9 4 2 NNE 40 60
18.09.2020 14:00:00 11,6 9,0 5 3 N 40 42
18.09.2020 13:00:00 11,2 8,2 0 0 N 40 54
18.09.2020 12:00:00 11,0 6,7 4 2 N 50 48
18.09.2020 11:00:00 11,2 8,2 5 3 NNE 30 60
18.09.2020 10:00:00 10,2 7,4 8 4 ENE 30 60
18.09.2020 09:00:00 9,8 6,9 8 4 NNE 30 60
18.09.2020 08:00:00 9,2 6,6 4 2 NNE 30 18
18.09.2020 07:00:00 8,6 5,5 4 2 NNE 30 0
18.09.2020 06:00:00 9,0 6,3 4 2 N 40 -
18.09.2020 05:00:00 8,9 6,2 4 2 N 30 -
18.09.2020 04:00:00 8,9 6,7 0 0 N 30 -
18.09.2020 03:00:00 8,8 6,4 5 3 WSW 30 -
18.09.2020 02:00:00 8,8 6,6 9 5 N 30 -
18.09.2020 01:00:00 8,8 7,1 9 5 N 30 -
18.09.2020 00:00:00 9,4 8,0 9 5 S 30 -
17.09.2020 23:00:00 9,4 5,4 15 8 SSW 40 -
17.09.2020 22:00:00 9,8 5,0 11 6 SSW 40 -
17.09.2020 21:00:00 10,7 3,7 5 3 NNW 40 -
17.09.2020 20:00:00 11,0 4,7 9 5 N 40 0
17.09.2020 19:00:00 11,0 4,5 9 5 NNW 40 0
17.09.2020 18:00:00 11,4 3,4 11 6 NNW 40 36
17.09.2020 17:00:00 12,8 4,0 9 5 NNW 40 60
17.09.2020 16:00:00 12,7 3,9 11 6 NNW 40 60
17.09.2020 15:00:00 12,3 3,3 13 7 N 40 60
17.09.2020 14:00:00 11,8 3,8 13 7 N 40 60
17.09.2020 13:00:00 10,8 3,4 15 8 N 40 60
17.09.2020 12:00:00 9,8 3,5 16 9 N 40 60
17.09.2020 11:00:00 9,1 3,7 26 14 NNE 40 60
17.09.2020 10:00:00 8,9 3,7 28 15 N 30 60
17.09.2020 09:00:00 8,4 3,7 34 18 N 30 42
17.09.2020 08:00:00 8,4 2,4 28 15 N 30 30

tt = temperature
td = dewpoint
ff = wind speed
dd = wind direction
vv = visibility
sd = sunshine duration

Next stations